Time;durP1;ratioP1;P1;durP2;ratioP2;P2;SDS_P1;SDS_P2;PMS_P1;PMS_P2;Temp;Humidity;BMP_temperature;BMP_pressure;BME280_temperature;BME280_humidity;BME280_pressure;Samples;Min_cycle;Max_cycle;Signal;HPM_P1;HPM_P2
2022/08/12 00:43:27;;;;;;;;;;;14.40;99.90;;;;;;5093622;28;20007;-67
2022/08/12 00:48:38;;;;;;;;;;;14.20;99.90;;;;;;5093530;28;20041;-67
2022/08/12 00:51:06;;;;;;;;;;;14.20;99.90;;;;;;5093256;28;19908;-67
2022/08/12 00:53:33;;;;;;;;;;;14.10;99.90;;;;;;5093110;28;19923;-68
2022/08/12 00:56:01;;;;;;;;;;;14.10;99.90;;;;;;5093148;28;19908;-68
2022/08/12 00:58:29;;;;;;;;;;;14.10;99.90;;;;;;5093015;28;19908;-67
2022/08/12 01:01:03;;;;;;;;;;;14.10;99.90;;;;;;5093091;28;20365;-68
2022/08/12 01:11:27;;;;;;;;;;;14.00;99.90;;;;;;5093091;28;19943;-67
2022/08/12 01:11:50;;;;;;;;;;;13.80;99.90;;;;;;5092999;28;19996;-67
2022/08/12 01:14:19;;;;;;;;;;;13.70;99.90;;;;;;5092819;28;19923;-68
2022/08/12 01:16:47;;;;;;;;;;;13.70;99.90;;;;;;5093032;28;20313;-68
2022/08/12 01:19:14;;;;;;;;;;;13.80;99.90;;;;;;5093052;28;19908;-68
2022/08/12 01:22:12;;;;;;;;;;;13.80;99.90;;;;;;5093017;28;20320;-68
2022/08/12 01:24:57;;;;;;;;;;;13.70;99.90;;;;;;5093060;28;20006;-68
2022/08/12 01:27:24;;;;;;;;;;;13.70;99.90;;;;;;5092930;28;20041;-68
2022/08/12 01:29:52;;;;;;;;;;;13.60;99.90;;;;;;5095074;28;19913;-68
2022/08/12 01:32:20;;;;;;;;;;;13.70;99.90;;;;;;5096213;28;20425;-69
2022/08/12 01:35:13;;;;;;;;;;;13.70;99.90;;;;;;5096681;28;19912;-68
2022/08/12 01:37:48;;;;;;;;;;;13.70;99.90;;;;;;5094438;28;19915;-68
2022/08/12 01:40:18;;;;;;;;;;;13.70;99.90;;;;;;5096195;28;19908;-69
2022/08/12 01:42:46;;;;;;;;;;;13.70;99.90;;;;;;5096168;28;19908;-68
2022/08/12 01:45:13;;;;;;;;;;;13.70;99.90;;;;;;5096207;28;20355;-68
2022/08/12 01:47:41;;;;;;;;;;;13.80;99.90;;;;;;5096205;28;19909;-68
2022/08/12 01:50:19;;;;;;;;;;;13.80;99.90;;;;;;5095918;28;19934;-68
2022/08/12 01:52:59;;;;;;;;;;;13.80;99.90;;;;;;5096093;28;19913;-69
2022/08/12 01:55:32;;;;;;;;;;;13.90;99.90;;;;;;5096053;28;19916;-69
2022/08/12 01:58:18;;;;;;;;;;;13.90;99.90;;;;;;5095764;28;19908;-69
2022/08/12 02:00:51;;;;;;;;;;;14.10;99.90;;;;;;5095998;28;19908;-69
2022/08/12 02:12:54;;;;;;;;;;;14.50;99.90;;;;;;5095433;28;19918;-69
2022/08/12 02:15:31;;;;;;;;;;;14.50;99.90;;;;;;5095520;28;20321;-69
2022/08/12 02:18:03;;;;;;;;;;;14.50;99.90;;;;;;5095529;28;19915;-69
2022/08/12 02:20:53;;;;;;;;;;;14.60;99.90;;;;;;5095580;28;20410;-69
2022/08/12 02:23:24;;;;;;;;;;;14.60;99.90;;;;;;5095551;28;19915;-69
2022/08/12 02:25:53;;;;;;;;;;;14.60;99.90;;;;;;5095425;28;19916;-69
2022/08/12 02:28:21;;;;;;;;;;;14.50;99.90;;;;;;5095085;28;19934;-69
2022/08/12 02:30:47;;;;;;;;;;;14.50;99.90;;;;;;5095301;28;20003;-69
2022/08/12 02:33:16;;;;;;;;;;;14.50;99.90;;;;;;5095241;28;20309;-68
2022/08/12 02:35:44;;;;;;;;;;;14.50;99.90;;;;;;5095183;28;20282;-69
2022/08/12 02:38:11;;;;;;;;;;;14.60;99.90;;;;;;5093729;28;19912;-69
2022/08/12 02:40:39;;;;;;;;;;;14.60;99.90;;;;;;5094300;28;19958;-69
2022/08/12 02:43:29;;;;;;;;;;;14.50;99.90;;;;;;5094776;28;20397;-69
2022/08/12 02:46:07;;;;;;;;;;;14.50;99.90;;;;;;5094728;28;19924;-69
2022/08/12 02:48:33;;;;;;;;;;;14.60;99.90;;;;;;5094917;28;20350;-69
2022/08/12 02:51:03;;;;;;;;;;;14.60;99.90;;;;;;5094877;28;20262;-69
2022/08/12 02:53:31;;;;;;;;;;;14.60;99.90;;;;;;5094757;28;19959;-69
2022/08/12 02:56:04;;;;;;;;;;;14.70;99.90;;;;;;5094763;28;19960;-69
2022/08/12 02:58:35;;;;;;;;;;;14.70;99.90;;;;;;5094040;28;21338;-69
2022/08/12 03:01:03;;;;;;;;;;;14.70;99.90;;;;;;5094806;28;19939;-69
2022/08/12 03:03:31;;;;;;;;;;;14.60;99.90;;;;;;5094681;28;19908;-68
2022/08/12 03:06:02;;;;;;;;;;;14.70;99.90;;;;;;5094545;28;19977;-69
2022/08/12 03:08:31;;;;;;;;;;;14.80;99.90;;;;;;5094516;28;20320;-69
2022/08/12 03:11:19;;;;;;;;;;;14.80;99.90;;;;;;5094408;28;19908;-69
2022/08/12 03:13:50;;;;;;;;;;;15.00;99.90;;;;;;5094359;28;19962;-67
2022/08/12 03:16:17;;;;;;;;;;;15.00;99.90;;;;;;5093044;28;19908;-67
2022/08/12 03:18:44;;;;;;;;;;;15.10;99.90;;;;;;5094519;28;19912;-67
2022/08/12 03:21:12;;;;;;;;;;;15.20;99.90;;;;;;5094455;28;19919;-68
2022/08/12 03:23:41;;;;;;;;;;;15.20;99.90;;;;;;5094213;28;19951;-68
2022/08/12 03:26:07;;;;;;;;;;;15.30;99.90;;;;;;5094014;28;19916;-68
2022/08/12 03:28:52;;;;;;;;;;;15.30;99.90;;;;;;5094255;28;20378;-68
2022/08/12 03:31:23;;;;;;;;;;;15.20;99.90;;;;;;5094176;28;19908;-68
2022/08/12 03:33:51;;;;;;;;;;;15.10;99.90;;;;;;5094057;28;19945;-68
2022/08/12 03:36:19;;;;;;;;;;;15.10;99.90;;;;;;5093985;28;19943;-68
2022/08/12 03:39:00;;;;;;;;;;;15.10;99.90;;;;;;5093847;28;19915;-68
2022/08/12 03:41:39;;;;;;;;;;;15.10;99.90;;;;;;5093891;28;19943;-68
2022/08/12 04:01:12;;;;;;;;;;;15.10;99.90;;;;;;5094011;28;19930;-68
2022/08/12 04:03:51;;;;;;;;;;;15.10;99.90;;;;;;5093569;28;19908;-68
2022/08/12 04:06:22;;;;;;;;;;;15.10;99.90;;;;;;5081917;28;19908;-68
2022/08/12 04:08:50;;;;;;;;;;;15.10;99.90;;;;;;5061491;28;19920;-68
2022/08/12 04:14:10;;;;;;;;;;;15.10;99.90;;;;;;5059268;28;20420;-68
2022/08/12 04:16:38;;;;;;;;;;;15.10;99.90;;;;;;5093429;28;19915;-68
2022/08/12 04:19:05;;;;;;;;;;;15.10;99.90;;;;;;5093528;28;20274;-68
2022/08/12 04:21:32;;;;;;;;;;;15.10;99.90;;;;;;5093481;28;19908;-68
2022/08/12 04:24:00;;;;;;;;;;;15.10;99.90;;;;;;5093385;28;19908;-67
2022/08/12 04:26:28;;;;;;;;;;;15.10;99.90;;;;;;5093295;28;20006;-68
2022/08/12 04:28:55;;;;;;;;;;;15.20;99.90;;;;;;5093464;28;19908;-68
2022/08/12 04:31:35;;;;;;;;;;;15.10;99.90;;;;;;5093690;28;20308;-68
2022/08/12 04:34:03;;;;;;;;;;;15.10;99.90;;;;;;5093134;28;20377;-67
2022/08/12 04:36:30;;;;;;;;;;;15.10;99.90;;;;;;5093315;28;19908;-68
2022/08/12 04:39:00;;;;;;;;;;;15.10;99.90;;;;;;5093106;28;20378;-68
2022/08/12 04:41:28;;;;;;;;;;;15.10;99.90;;;;;;5093056;28;19908;-68
2022/08/12 04:43:55;;;;;;;;;;;15.00;99.90;;;;;;5093044;28;19908;-68
2022/08/12 04:46:23;;;;;;;;;;;15.00;99.90;;;;;;5092972;28;19931;-68
2022/08/12 04:48:53;;;;;;;;;;;15.00;99.90;;;;;;5093185;28;19916;-68
2022/08/12 04:51:20;;;;;;;;;;;15.00;99.90;;;;;;5093230;28;20377;-68
2022/08/12 04:53:47;;;;;;;;;;;15.00;99.90;;;;;;5093109;28;20019;-67
2022/08/12 04:56:15;;;;;;;;;;;14.90;99.90;;;;;;5092786;28;19908;-68
2022/08/12 04:58:42;;;;;;;;;;;14.90;99.90;;;;;;5093238;28;19931;-68
2022/08/12 05:01:09;;;;;;;;;;;14.90;99.90;;;;;;5093182;28;20330;-68
2022/08/12 05:03:39;;;;;;;;;;;14.90;99.90;;;;;;5093361;28;19915;-69
2022/08/12 05:06:06;;;;;;;;;;;14.90;99.90;;;;;;5096761;28;19909;-68
2022/08/12 05:08:33;;;;;;;;;;;14.90;99.90;;;;;;5097328;28;20243;-68
2022/08/12 05:11:00;;;;;;;;;;;14.80;99.90;;;;;;5095287;28;19917;-68
2022/08/12 05:13:45;;;;;;;;;;;14.80;99.90;;;;;;5096758;28;20278;-68
2022/08/12 05:16:11;;;;;;;;;;;14.80;99.90;;;;;;5095340;28;19947;-68
2022/08/12 05:18:38;;;;;;;;;;;14.80;99.90;;;;;;5096744;28;19915;-68
2022/08/12 05:21:09;;;;;;;;;;;14.80;99.90;;;;;;5096647;28;20267;-68
2022/08/12 05:23:36;;;;;;;;;;;14.80;99.90;;;;;;5096411;28;20274;-68
2022/08/12 05:26:04;;;;;;;;;;;14.70;99.90;;;;;;5096360;28;19956;-68
2022/08/12 05:28:32;;;;;;;;;;;14.70;99.90;;;;;;5096375;28;19974;-68
2022/08/12 05:31:00;;;;;;;;;;;14.70;99.90;;;;;;5096397;28;19908;-68
2022/08/12 05:33:34;;;;;;;;;;;14.70;99.90;;;;;;5096264;28;19916;-68
2022/08/12 05:36:01;;;;;;;;;;;14.70;99.90;;;;;;5096113;28;19912;-69
2022/08/12 05:41:19;;;;;;;;;;;14.70;99.90;;;;;;5096188;28;19916;-68
2022/08/12 05:43:50;;;;;;;;;;;14.70;99.90;;;;;;5096171;28;19974;-68
2022/08/12 05:46:17;;;;;;;;;;;14.70;99.90;;;;;;5095835;28;19967;-68
2022/08/12 05:48:44;;;;;;;;;;;14.70;99.90;;;;;;5096081;28;20285;-68
2022/08/12 05:51:11;;;;;;;;;;;14.70;99.90;;;;;;5096104;28;20015;-68
2022/08/12 05:53:38;;;;;;;;;;;14.70;99.90;;;;;;5095975;28;19916;-68
2022/08/12 05:56:05;;;;;;;;;;;14.80;99.90;;;;;;5095592;28;19908;-68
2022/08/12 05:58:33;;;;;;;;;;;14.70;99.90;;;;;;5095921;28;19908;-68
2022/08/12 06:01:00;;;;;;;;;;;14.70;99.90;;;;;;5095842;28;20279;-68
2022/08/12 06:03:27;;;;;;;;;;;14.70;99.90;;;;;;5095878;28;20277;-68
2022/08/12 06:05:55;;;;;;;;;;;14.70;99.90;;;;;;5095939;28;19908;-67
2022/08/12 06:08:24;;;;;;;;;;;14.60;99.90;;;;;;5095610;28;19995;-68
2022/08/12 06:10:51;;;;;;;;;;;14.60;99.90;;;;;;5095603;28;19916;-68
2022/08/12 06:13:18;;;;;;;;;;;14.60;99.90;;;;;;5095667;28;19916;-68
2022/08/12 06:15:45;;;;;;;;;;;14.60;99.90;;;;;;5094659;28;19908;-68
2022/08/12 06:18:12;;;;;;;;;;;14.60;99.90;;;;;;5095380;28;19957;-68
2022/08/12 06:20:39;;;;;;;;;;;14.60;99.90;;;;;;5095502;28;20331;-68
2022/08/12 06:23:06;;;;;;;;;;;14.60;99.90;;;;;;5094372;28;19908;-69
2022/08/12 06:25:33;;;;;;;;;;;14.50;99.90;;;;;;5095375;28;20491;-68
2022/08/12 06:28:02;;;;;;;;;;;14.50;99.90;;;;;;5095398;28;20358;-68
2022/08/12 06:30:34;;;;;;;;;;;14.50;99.90;;;;;;5095496;28;20343;-68
2022/08/12 06:33:02;;;;;;;;;;;14.50;99.90;;;;;;5064539;28;20088;-68
2022/08/12 06:35:29;;;;;;;;;;;14.50;99.90;;;;;;5055138;28;19916;-68
2022/08/12 06:37:56;;;;;;;;;;;14.50;99.90;;;;;;5054480;28;19962;-68
2022/08/12 06:43:18;;;;;;;;;;;14.50;99.90;;;;;;5000523;28;20372;-68
2022/08/12 06:45:46;;;;;;;;;;;14.40;99.90;;;;;;5054657;28;19920;-68
2022/08/12 06:48:12;;;;;;;;;;;14.50;99.90;;;;;;5054708;28;20344;-68
2022/08/12 06:50:41;;;;;;;;;;;14.40;99.90;;;;;;5053974;28;19909;-68
2022/08/12 06:53:08;;;;;;;;;;;14.40;99.90;;;;;;5052431;28;19913;-68
2022/08/12 06:55:35;;;;;;;;;;;14.40;99.90;;;;;;5052449;28;19909;-68
2022/08/12 06:58:05;;;;;;;;;;;14.30;99.90;;;;;;5052232;28;19916;-68
2022/08/12 07:00:35;;;;;;;;;;;14.40;99.90;;;;;;5052645;28;19916;-69
2022/08/12 07:03:02;;;;;;;;;;;14.40;99.90;;;;;;5052440;28;19909;-68
2022/08/12 07:05:29;;;;;;;;;;;14.40;99.90;;;;;;5051959;28;19943;-68
2022/08/12 07:08:00;;;;;;;;;;;14.30;99.90;;;;;;5052254;28;19913;-68
2022/08/12 07:10:27;;;;;;;;;;;14.30;99.90;;;;;;5052407;28;19913;-68
2022/08/12 07:12:54;;;;;;;;;;;14.30;99.90;;;;;;5052177;28;19917;-68
2022/08/12 07:15:23;;;;;;;;;;;14.30;99.90;;;;;;5052183;28;20287;-68
2022/08/12 07:17:58;;;;;;;;;;;14.20;99.90;;;;;;5051615;28;19954;-68
2022/08/12 07:20:30;;;;;;;;;;;14.20;99.90;;;;;;5051852;28;20371;-68
2022/08/12 07:22:57;;;;;;;;;;;14.30;99.90;;;;;;5067402;28;19966;-68
2022/08/12 07:25:36;;;;;;;;;;;14.20;99.90;;;;;;5052172;28;19920;-68
2022/08/12 07:28:04;;;;;;;;;;;14.20;99.90;;;;;;5051433;28;19913;-69
2022/08/12 07:30:33;;;;;;;;;;;14.10;99.90;;;;;;5051502;28;19955;-68
2022/08/12 07:33:03;;;;;;;;;;;14.10;99.90;;;;;;5051790;28;20015;-68
2022/08/12 07:35:33;;;;;;;;;;;14.10;99.90;;;;;;5051785;28;19913;-69
2022/08/12 07:38:01;;;;;;;;;;;14.10;99.90;;;;;;5051888;28;20420;-68
2022/08/12 07:40:31;;;;;;;;;;;14.00;99.90;;;;;;5050289;28;20007;-68
2022/08/12 07:42:58;;;;;;;;;;;14.00;99.90;;;;;;5050103;28;19963;-68
2022/08/12 07:45:24;;;;;;;;;;;14.00;99.90;;;;;;5051342;28;19921;-69
2022/08/12 07:47:51;;;;;;;;;;;14.00;99.90;;;;;;5051585;28;19962;-68
2022/08/12 07:50:19;;;;;;;;;;;14.10;99.90;;;;;;5051454;28;19920;-68
2022/08/12 07:52:46;;;;;;;;;;;14.00;99.90;;;;;;5051395;28;19960;-67
2022/08/12 07:55:14;;;;;;;;;;;14.00;99.90;;;;;;5051260;28;19912;-68
2022/08/12 07:57:52;;;;;;;;;;;14.00;99.90;;;;;;5050980;28;19981;-68
2022/08/12 08:00:18;;;;;;;;;;;14.00;99.90;;;;;;5050973;28;19920;-68
2022/08/12 08:02:45;;;;;;;;;;;14.00;99.90;;;;;;5051348;28;20472;-68
2022/08/12 08:05:15;;;;;;;;;;;13.90;99.90;;;;;;5051303;28;19989;-68
2022/08/12 08:07:41;;;;;;;;;;;13.90;99.90;;;;;;5051307;28;19921;-68
2022/08/12 08:10:10;;;;;;;;;;;13.90;99.90;;;;;;5050467;28;19916;-68
2022/08/12 08:12:52;;;;;;;;;;;13.90;99.90;;;;;;5051276;28;19917;-68
2022/08/12 08:15:19;;;;;;;;;;;13.90;99.90;;;;;;5051260;28;19924;-68
2022/08/12 08:17:58;;;;;;;;;;;13.80;99.90;;;;;;5051168;28;19920;-67
2022/08/12 08:20:27;;;;;;;;;;;13.80;99.90;;;;;;5050893;28;19964;-69
2022/08/12 08:22:55;;;;;;;;;;;13.80;99.90;;;;;;5050526;28;20007;-67
2022/08/12 08:25:22;;;;;;;;;;;13.80;99.90;;;;;;5050922;28;19920;-68
2022/08/12 08:27:49;;;;;;;;;;;13.80;99.90;;;;;;5051259;28;19993;-68
2022/08/12 08:30:16;;;;;;;;;;;13.80;99.90;;;;;;5050830;28;19919;-68
2022/08/12 08:32:42;;;;;;;;;;;13.80;99.90;;;;;;5051006;28;19917;-68
2022/08/12 08:35:12;;;;;;;;;;;13.80;99.90;;;;;;5050631;28;19919;-68
2022/08/12 08:37:38;;;;;;;;;;;13.70;99.90;;;;;;5049310;28;19912;-68
2022/08/12 08:42:50;;;;;;;;;;;13.70;99.90;;;;;;5055132;28;20449;-68
2022/08/12 08:45:17;;;;;;;;;;;13.70;99.90;;;;;;5054818;28;19920;-68
2022/08/12 08:47:47;;;;;;;;;;;13.70;99.90;;;;;;5054857;28;20486;-68
2022/08/12 08:50:15;;;;;;;;;;;13.70;99.90;;;;;;5054291;28;19915;-68
2022/08/12 08:52:42;;;;;;;;;;;13.70;99.90;;;;;;5054805;28;20294;-68
2022/08/12 08:55:13;;;;;;;;;;;13.70;99.90;;;;;;5053503;28;19956;-68
2022/08/12 08:57:42;;;;;;;;;;;13.70;99.90;;;;;;5054983;28;19915;-68
2022/08/12 09:00:17;;;;;;;;;;;13.70;99.90;;;;;;5054568;28;19987;-69
2022/08/12 09:02:44;;;;;;;;;;;13.70;99.90;;;;;;5055590;28;20286;-68
2022/08/12 09:05:10;;;;;;;;;;;13.70;99.90;;;;;;5056827;28;19963;-68
2022/08/12 09:07:42;;;;;;;;;;;13.70;99.90;;;;;;5056551;28;19909;-68
2022/08/12 09:10:09;;;;;;;;;;;13.70;99.90;;;;;;5056181;28;20003;-68
2022/08/12 09:15:20;;;;;;;;;;;13.70;99.90;;;;;;5056635;28;19963;-68
2022/08/12 09:17:56;;;;;;;;;;;13.70;99.90;;;;;;5056612;28;19948;-68
2022/08/12 09:20:27;;;;;;;;;;;13.80;99.90;;;;;;5056312;28;19915;-68
2022/08/12 09:22:57;;;;;;;;;;;13.80;99.90;;;;;;5056406;28;20355;-68
2022/08/12 09:25:30;;;;;;;;;;;13.80;99.90;;;;;;5056168;28;20342;-68
2022/08/12 09:27:58;;;;;;;;;;;13.80;99.90;;;;;;5056220;28;19909;-68
2022/08/12 09:30:25;;;;;;;;;;;13.80;99.90;;;;;;5056102;28;19908;-68
2022/08/12 09:32:51;;;;;;;;;;;13.80;99.90;;;;;;5056171;28;19920;-68
2022/08/12 09:35:19;;;;;;;;;;;13.80;99.90;;;;;;5056188;28;19909;-69
2022/08/12 09:37:47;;;;;;;;;;;13.80;99.90;;;;;;5056160;28;19915;-70
2022/08/12 09:40:15;;;;;;;;;;;13.80;99.90;;;;;;5055683;28;19909;-67
2022/08/12 09:45:30;;;;;;;;;;;13.80;99.90;;;;;;5056141;28;19967;-70
2022/08/12 09:47:58;;;;;;;;;;;13.70;99.90;;;;;;5054945;28;19913;-67
2022/08/12 09:50:25;;;;;;;;;;;13.70;99.90;;;;;;5055719;28;19913;-69
2022/08/12 09:53:09;;;;;;;;;;;13.70;99.90;;;;;;5055776;28;20367;-68
2022/08/12 09:55:38;;;;;;;;;;;13.70;99.90;;;;;;5055800;28;20291;-69
2022/08/12 09:58:04;;;;;;;;;;;13.70;99.90;;;;;;5055747;28;19996;-69
2022/08/12 10:00:33;;;;;;;;;;;13.70;99.90;;;;;;5055926;28;19913;-69
2022/08/12 10:03:02;;;;;;;;;;;13.60;99.90;;;;;;5055781;28;20274;-69
2022/08/12 10:05:35;;;;;;;;;;;13.70;99.90;;;;;;5055839;28;19971;-70
2022/08/12 10:08:03;;;;;;;;;;;13.70;99.90;;;;;;5055493;28;19919;-70
2022/08/12 10:10:30;;;;;;;;;;;13.70;99.90;;;;;;5055391;28;20339;-69
2022/08/12 10:15:43;;;;;;;;;;;13.60;99.90;;;;;;5055969;28;20448;-69
2022/08/12 10:18:11;;;;;;;;;;;13.70;99.90;;;;;;5055259;28;19916;-69
2022/08/12 10:20:38;;;;;;;;;;;13.70;99.90;;;;;;5055443;28;19915;-69
2022/08/12 10:23:05;;;;;;;;;;;13.70;99.90;;;;;;5055434;28;20015;-69
2022/08/12 10:31:01;;;;;;;;;;;13.70;99.90;;;;;;5055571;28;19966;-69
2022/08/12 10:33:33;;;;;;;;;;;13.70;99.90;;;;;;5055145;28;19956;-69
2022/08/12 10:36:00;;;;;;;;;;;13.70;99.90;;;;;;5055236;28;19919;-70
2022/08/12 10:38:28;;;;;;;;;;;13.70;99.90;;;;;;5054993;28;19908;-69
2022/08/12 10:43:42;;;;;;;;;;;13.60;99.90;;;;;;5055016;28;19915;-69
2022/08/12 10:46:16;;;;;;;;;;;13.60;99.90;;;;;;5054613;28;20287;-69
2022/08/12 10:48:46;;;;;;;;;;;13.60;99.90;;;;;;5054900;28;19916;-69
2022/08/12 10:51:13;;;;;;;;;;;13.60;99.90;;;;;;5054962;28;19915;-70
2022/08/12 10:53:42;;;;;;;;;;;13.60;99.90;;;;;;5054598;28;19924;-69
2022/08/12 10:56:12;;;;;;;;;;;13.60;99.90;;;;;;5054525;28;19915;-69
2022/08/12 10:58:39;;;;;;;;;;;13.60;99.90;;;;;;5054624;28;19944;-69
2022/08/12 11:01:09;;;;;;;;;;;13.60;99.90;;;;;;5054450;28;19909;-69
2022/08/12 11:03:40;;;;;;;;;;;13.50;99.90;;;;;;5054260;28;20267;-69
2022/08/12 11:06:08;;;;;;;;;;;13.50;99.90;;;;;;5054200;28;19909;-69
2022/08/12 11:08:36;;;;;;;;;;;13.50;99.90;;;;;;5054418;28;19915;-69
2022/08/12 11:11:07;;;;;;;;;;;13.50;99.90;;;;;;5054581;28;19909;-69
2022/08/12 11:13:34;;;;;;;;;;;13.50;99.90;;;;;;5054345;28;19917;-69
2022/08/12 11:16:01;;;;;;;;;;;13.50;99.90;;;;;;5054381;28;19928;-70
2022/08/12 11:18:29;;;;;;;;;;;13.50;99.90;;;;;;5054202;28;19919;-69
2022/08/12 11:20:58;;;;;;;;;;;13.50;99.90;;;;;;5054276;28;19909;-69
2022/08/12 11:23:25;;;;;;;;;;;13.50;99.90;;;;;;5054170;28;20042;-69
2022/08/12 11:25:51;;;;;;;;;;;13.60;99.90;;;;;;5054279;28;19920;-69
2022/08/12 11:28:18;;;;;;;;;;;13.60;99.90;;;;;;5054129;28;19912;-69
2022/08/12 11:30:45;;;;;;;;;;;13.60;99.90;;;;;;5054360;28;19954;-69
2022/08/12 11:33:12;;;;;;;;;;;13.60;99.90;;;;;;5054383;28;20363;-69
2022/08/12 11:35:42;;;;;;;;;;;13.60;99.90;;;;;;5054943;28;19955;-70
2022/08/12 11:38:09;;;;;;;;;;;13.70;99.90;;;;;;5053686;28;19959;-69
2022/08/12 11:40:36;;;;;;;;;;;13.70;99.90;;;;;;5054444;28;20271;-68
2022/08/12 11:43:03;;;;;;;;;;;13.70;99.90;;;;;;5053930;28;20355;-69
2022/08/12 11:45:30;;;;;;;;;;;13.70;99.90;;;;;;5053536;28;19928;-70
2022/08/12 11:48:00;;;;;;;;;;;13.70;99.90;;;;;;5053755;28;20000;-70
2022/08/12 11:50:27;;;;;;;;;;;13.60;99.90;;;;;;5053711;28;20351;-70
2022/08/12 11:52:53;;;;;;;;;;;13.60;99.90;;;;;;5053593;28;19913;-70
2022/08/12 11:55:20;;;;;;;;;;;13.60;99.90;;;;;;5053051;28;19920;-70
2022/08/12 11:57:51;;;;;;;;;;;13.70;99.90;;;;;;5053792;28;20321;-70
2022/08/12 12:00:18;;;;;;;;;;;13.70;99.90;;;;;;5053427;28;20355;-69
2022/08/12 12:02:45;;;;;;;;;;;13.70;99.90;;;;;;5053403;28;19913;-69
2022/08/12 12:05:14;;;;;;;;;;;13.80;99.90;;;;;;5053560;28;20393;-69
2022/08/12 12:07:44;;;;;;;;;;;13.70;99.90;;;;;;5053430;28;19913;-69
2022/08/12 12:10:12;;;;;;;;;;;13.70;99.90;;;;;;5052588;28;19931;-69
2022/08/12 12:12:39;;;;;;;;;;;13.70;99.90;;;;;;5053344;28;20014;-69
2022/08/12 12:15:06;;;;;;;;;;;13.80;99.90;;;;;;5052647;28;19909;-69
2022/08/12 12:17:36;;;;;;;;;;;13.70;99.90;;;;;;5053259;28;20366;-70
2022/08/12 12:20:07;;;;;;;;;;;13.70;99.90;;;;;;5053111;28;19909;-69
2022/08/12 12:22:34;;;;;;;;;;;13.70;99.90;;;;;;5053293;28;19962;-69
2022/08/12 12:25:00;;;;;;;;;;;13.70;99.90;;;;;;5052678;28;19915;-69
2022/08/12 12:27:27;;;;;;;;;;;13.70;99.90;;;;;;5053329;28;20343;-70
2022/08/12 12:29:57;;;;;;;;;;;13.70;99.90;;;;;;5053335;28;19921;-69
2022/08/12 12:32:23;;;;;;;;;;;13.70;99.90;;;;;;5052958;28;20384;-69
2022/08/12 12:34:50;;;;;;;;;;;13.60;99.90;;;;;;5053130;28;19951;-69
2022/08/12 12:37:17;;;;;;;;;;;13.50;99.90;;;;;;5053307;28;19962;-69
2022/08/12 12:39:43;;;;;;;;;;;13.50;99.90;;;;;;5052587;28;19964;-70
2022/08/12 12:42:10;;;;;;;;;;;13.40;99.90;;;;;;5051621;28;19916;-69
2022/08/12 12:44:37;;;;;;;;;;;13.40;99.90;;;;;;5052958;28;19921;-69
2022/08/12 12:47:04;;;;;;;;;;;13.40;99.90;;;;;;5053104;28;20382;-68
2022/08/12 12:49:30;;;;;;;;;;;13.40;99.90;;;;;;5053023;28;19909;-68
2022/08/12 12:51:57;;;;;;;;;;;13.30;99.90;;;;;;5053284;28;19917;-69
2022/08/12 12:54:24;;;;;;;;;;;13.30;99.90;;;;;;5052687;28;19916;-68
2022/08/12 12:56:53;;;;;;;;;;;13.30;99.90;;;;;;5051611;28;19909;-68
2022/08/12 12:59:22;;;;;;;;;;;13.30;99.90;;;;;;5053412;28;19909;-68
2022/08/12 13:01:49;;;;;;;;;;;13.30;99.90;;;;;;5054949;28;19975;-69
2022/08/12 13:04:17;;;;;;;;;;;13.30;99.90;;;;;;5057541;28;19915;-69
2022/08/12 13:06:50;;;;;;;;;;;13.20;99.90;;;;;;5055013;28;19909;-70
2022/08/12 13:09:18;;;;;;;;;;;13.20;99.90;;;;;;5058639;28;19999;-70
2022/08/12 13:11:45;;;;;;;;;;;13.20;99.90;;;;;;5056134;28;19909;-69
2022/08/12 13:14:12;;;;;;;;;;;13.20;99.90;;;;;;5053023;28;19962;-69
2022/08/12 13:16:39;;;;;;;;;;;13.20;99.90;;;;;;5052856;28;19909;-69
2022/08/12 13:19:05;;;;;;;;;;;13.10;99.90;;;;;;5052970;28;19955;-69
2022/08/12 13:21:32;;;;;;;;;;;13.20;99.90;;;;;;5053335;28;20379;-69
2022/08/12 13:24:01;;;;;;;;;;;13.10;99.90;;;;;;5053036;28;20271;-70
2022/08/12 13:26:32;;;;;;;;;;;13.10;99.90;;;;;;5059140;28;19909;-70
2022/08/12 13:28:59;;;;;;;;;;;13.10;99.90;;;;;;5055711;28;19912;-70
2022/08/12 13:31:26;;;;;;;;;;;13.20;99.90;;;;;;5057789;28;20240;-69
2022/08/12 13:33:52;;;;;;;;;;;13.20;99.90;;;;;;5056445;28;19917;-69
2022/08/12 13:36:22;;;;;;;;;;;13.20;99.90;;;;;;5056234;28;19909;-70
2022/08/12 13:38:52;;;;;;;;;;;13.20;99.90;;;;;;5056633;28;19915;-70
2022/08/12 13:41:35;;;;;;;;;;;13.10;99.90;;;;;;5055752;28;19909;-70
2022/08/12 13:44:05;;;;;;;;;;;13.20;99.90;;;;;;5056005;28;19940;-70
2022/08/12 13:46:34;;;;;;;;;;;13.20;99.90;;;;;;5056342;28;19917;-70
2022/08/12 13:49:03;;;;;;;;;;;13.30;99.90;;;;;;5056229;28;19913;-70
2022/08/12 13:51:30;;;;;;;;;;;13.30;99.90;;;;;;5056166;28;19913;-69
2022/08/12 13:53:56;;;;;;;;;;;13.30;99.90;;;;;;5055359;28;19963;-70
2022/08/12 13:56:25;;;;;;;;;;;13.30;99.90;;;;;;5055873;28;20359;-70
2022/08/12 13:58:52;;;;;;;;;;;13.20;99.90;;;;;;5055991;28;19991;-70
2022/08/12 14:01:20;;;;;;;;;;;13.20;99.90;;;;;;5055948;28;19963;-70
2022/08/12 14:03:48;;;;;;;;;;;13.20;99.90;;;;;;5055780;28;19916;-68
2022/08/12 14:06:15;;;;;;;;;;;13.30;99.90;;;;;;5055559;28;19956;-69
2022/08/12 14:08:42;;;;;;;;;;;13.30;99.90;;;;;;5055087;28;19995;-69
2022/08/12 14:11:09;;;;;;;;;;;13.30;99.90;;;;;;5055774;28;19908;-70
2022/08/12 14:13:38;;;;;;;;;;;13.30;99.90;;;;;;5055632;28;19917;-69
2022/08/12 14:16:06;;;;;;;;;;;13.30;99.90;;;;;;5055344;28;20302;-70
2022/08/12 14:18:34;;;;;;;;;;;13.30;99.90;;;;;;5055072;28;19909;-70
2022/08/12 14:21:02;;;;;;;;;;;13.30;99.90;;;;;;5055442;28;19966;-70
2022/08/12 14:23:33;;;;;;;;;;;13.40;99.90;;;;;;5055285;28;19989;-70
2022/08/12 14:26:01;;;;;;;;;;;13.40;99.90;;;;;;5055458;28;19909;-69
2022/08/12 14:28:30;;;;;;;;;;;13.40;99.90;;;;;;5054076;28;19909;-69
2022/08/12 14:31:01;;;;;;;;;;;13.40;99.90;;;;;;5055251;28;19963;-70
2022/08/12 14:33:32;;;;;;;;;;;13.40;99.90;;;;;;5070592;28;19920;-70
2022/08/12 14:36:03;;;;;;;;;;;13.40;99.90;;;;;;5055027;28;19916;-69
2022/08/12 14:38:31;;;;;;;;;;;13.50;99.90;;;;;;5054581;28;19908;-69
2022/08/12 14:40:59;;;;;;;;;;;13.50;99.90;;;;;;5055055;28;20256;-69
2022/08/12 14:43:28;;;;;;;;;;;13.50;99.90;;;;;;5054985;28;19909;-69
2022/08/12 14:45:57;;;;;;;;;;;13.50;99.90;;;;;;5054765;28;20025;-69
2022/08/12 14:48:24;;;;;;;;;;;13.40;99.90;;;;;;5054760;28;19909;-69
2022/08/12 14:50:51;;;;;;;;;;;13.40;99.90;;;;;;5055038;28;19916;-69
2022/08/12 14:53:18;;;;;;;;;;;13.40;99.90;;;;;;5054668;28;19978;-70
2022/08/12 14:55:47;;;;;;;;;;;13.30;99.90;;;;;;5054863;28;19995;-69
2022/08/12 14:58:14;;;;;;;;;;;13.30;99.90;;;;;;5054551;28;19909;-69
2022/08/12 15:03:29;;;;;;;;;;;13.50;99.90;;;;;;5054622;28;19952;-69
2022/08/12 15:05:59;;;;;;;;;;;13.50;99.90;;;;;;5054669;28;19909;-69
2022/08/12 15:08:33;;;;;;;;;;;13.50;99.90;;;;;;5054396;28;19909;-69
2022/08/12 15:11:03;;;;;;;;;;;13.50;99.90;;;;;;5054413;28;20414;-69
2022/08/12 15:13:31;;;;;;;;;;;13.50;99.90;;;;;;5054444;28;20370;-70
2022/08/12 15:15:59;;;;;;;;;;;13.50;99.90;;;;;;5054514;28;19915;-69
2022/08/12 15:18:27;;;;;;;;;;;13.40;99.90;;;;;;5054366;28;20310;-70
2022/08/12 15:20:56;;;;;;;;;;;13.40;99.90;;;;;;5054268;28;20008;-69
2022/08/12 15:23:24;;;;;;;;;;;13.40;99.90;;;;;;5054158;28;19978;-69
2022/08/12 15:25:51;;;;;;;;;;;13.50;99.90;;;;;;5054293;28;20050;-69
2022/08/12 15:28:22;;;;;;;;;;;13.50;99.90;;;;;;5054018;28;19936;-69
2022/08/12 15:30:52;;;;;;;;;;;13.50;99.90;;;;;;5054161;28;19916;-69
2022/08/12 15:33:19;;;;;;;;;;;13.40;99.90;;;;;;5053975;28;20019;-69
2022/08/12 15:35:46;;;;;;;;;;;13.50;99.90;;;;;;5054049;28;19915;-69
2022/08/12 15:38:14;;;;;;;;;;;13.40;99.90;;;;;;5053708;28;19909;-69
2022/08/12 15:40:42;;;;;;;;;;;13.40;99.90;;;;;;5053990;28;19920;-69
2022/08/12 15:43:11;;;;;;;;;;;13.40;99.90;;;;;;5053993;28;20420;-68
2022/08/12 15:45:38;;;;;;;;;;;13.30;99.90;;;;;;5053660;28;19920;-69
2022/08/12 15:48:06;;;;;;;;;;;13.40;99.90;;;;;;5053552;28;19908;-69
2022/08/12 15:50:33;;;;;;;;;;;13.40;99.90;;;;;;5053679;28;19970;-69
2022/08/12 15:53:01;;;;;;;;;;;13.40;99.90;;;;;;5053610;28;19920;-69
2022/08/12 15:55:29;;;;;;;;;;;13.30;99.90;;;;;;5053982;28;19908;-69
2022/08/12 15:57:56;;;;;;;;;;;13.30;99.90;;;;;;5053740;28;19916;-69
2022/08/12 16:00:24;;;;;;;;;;;13.20;99.90;;;;;;5053405;28;19915;-69
2022/08/12 16:02:52;;;;;;;;;;;13.20;99.90;;;;;;5053682;28;19913;-69
2022/08/12 16:05:19;;;;;;;;;;;13.10;99.90;;;;;;5053632;28;19912;-69
2022/08/12 16:07:49;;;;;;;;;;;13.00;99.90;;;;;;5053380;28;20007;-69
2022/08/12 16:10:20;;;;;;;;;;;13.10;99.90;;;;;;5053388;28;19963;-68
2022/08/12 16:12:49;;;;;;;;;;;13.10;99.90;;;;;;5053704;28;19909;-68
2022/08/12 16:15:17;;;;;;;;;;;13.20;99.90;;;;;;5053499;28;19913;-68